Time;durP1;ratioP1;P1;durP2;ratioP2;P2;SDS_P1;SDS_P2;PMS_P1;PMS_P2;Temp;Humidity;BMP_temperature;BMP_pressure;BME280_temperature;BME280_humidity;BME280_pressure;Samples;Min_cycle;Max_cycle;Signal;HPM_P1;HPM_P2
2023/12/12 00:01:33;;;;;;;5.93;2.25;;;9.60;99.90;;;;;;4144195;28;20030;-68
2023/12/12 00:03:34;;;;;;;5.78;1.85;;;9.50;99.90;;;;;;4147393;28;20497;-68
2023/12/12 00:05:34;;;;;;;9.57;2.60;;;9.60;99.90;;;;;;4140278;28;20030;-68
2023/12/12 00:07:35;;;;;;;6.60;2.17;;;9.60;99.90;;;;;;4141296;28;20048;-68
2023/12/12 00:09:35;;;;;;;9.73;2.58;;;9.60;99.90;;;;;;4142466;28;20050;-68
2023/12/12 00:11:36;;;;;;;9.23;2.10;;;9.60;99.90;;;;;;4140349;28;20033;-68
2023/12/12 00:13:36;;;;;;;6.05;1.92;;;9.60;99.90;;;;;;4143158;28;20486;-68
2023/12/12 00:15:37;;;;;;;5.22;1.80;;;9.60;99.90;;;;;;4134559;28;20450;-68
2023/12/12 00:17:39;;;;;;;3.78;1.52;;;9.60;99.90;;;;;;4143849;28;20043;-69
2023/12/12 00:19:42;;;;;;;6.78;1.90;;;9.60;99.90;;;;;;4141782;28;20050;-68
2023/12/12 00:21:43;;;;;;;6.90;1.80;;;9.60;99.90;;;;;;4140334;28;20081;-68
2023/12/12 00:23:44;;;;;;;9.45;2.53;;;9.60;99.90;;;;;;4139285;28;20031;-68
2023/12/12 00:25:44;;;;;;;5.70;1.95;;;9.60;99.90;;;;;;4142976;28;20038;-68
2023/12/12 00:27:45;;;;;;;9.90;2.08;;;9.60;99.90;;;;;;4142357;28;20374;-68
2023/12/12 00:29:45;;;;;;;5.95;2.00;;;9.60;99.90;;;;;;4133624;28;20045;-64
2023/12/12 00:31:46;;;;;;;7.72;1.98;;;9.60;99.90;;;;;;4142023;28;20030;-64
2023/12/12 00:33:46;;;;;;;7.05;2.20;;;9.50;99.90;;;;;;4142290;28;20169;-64
2023/12/12 00:35:47;;;;;;;6.82;2.15;;;9.60;99.90;;;;;;4139274;28;20049;-64
2023/12/12 00:37:48;;;;;;;7.43;1.88;;;9.50;99.90;;;;;;4133023;28;20030;-64
2023/12/12 00:39:48;;;;;;;7.10;1.90;;;9.60;99.90;;;;;;4141783;28;20072;-69
2023/12/12 00:41:49;;;;;;;10.98;2.80;;;9.50;99.90;;;;;;4139323;28;20096;-69
2023/12/12 00:43:50;;;;;;;6.10;1.98;;;9.50;99.90;;;;;;4140800;28;20037;-69
2023/12/12 00:45:50;;;;;;;10.00;1.80;;;9.50;99.90;;;;;;4143997;28;20034;-69
2023/12/12 00:47:51;;;;;;;7.53;2.47;;;9.50;99.90;;;;;;4144373;28;20057;-69
2023/12/12 00:49:52;;;;;;;6.20;2.28;;;9.50;99.90;;;;;;4144298;28;20053;-68
2023/12/12 00:51:52;;;;;;;8.35;2.47;;;9.50;99.90;;;;;;4139022;28;20038;-68
2023/12/12 00:53:53;;;;;;;7.25;2.50;;;9.40;99.90;;;;;;4139847;28;20054;-68
2023/12/12 00:55:53;;;;;;;9.88;2.72;;;9.40;99.90;;;;;;4144377;28;20406;-67
2023/12/12 00:57:54;;;;;;;9.43;2.55;;;9.40;99.90;;;;;;4142851;28;20034;-68
2023/12/12 00:59:54;;;;;;;9.88;2.58;;;9.40;99.90;;;;;;4144256;28;20056;-68
2023/12/12 01:01:55;;;;;;;10.98;2.40;;;9.40;99.90;;;;;;4142504;28;20088;-68
2023/12/12 01:03:56;;;;;;;12.02;3.42;;;9.40;99.90;;;;;;4144375;28;20045;-68
2023/12/12 01:05:56;;;;;;;12.43;2.45;;;9.40;99.90;;;;;;4143792;28;20108;-68
2023/12/12 01:07:57;;;;;;;12.98;3.08;;;9.30;99.90;;;;;;4140697;28;20042;-68
2023/12/12 01:09:58;;;;;;;8.10;2.45;;;9.30;99.90;;;;;;4127002;28;20517;-68
2023/12/12 01:11:58;;;;;;;8.73;2.75;;;9.40;99.90;;;;;;4139112;28;20045;-67
2023/12/12 01:13:59;;;;;;;8.20;2.47;;;9.30;99.90;;;;;;4142970;28;20042;-68
2023/12/12 01:16:00;;;;;;;10.38;2.63;;;9.30;99.90;;;;;;4143465;28;20121;-68
2023/12/12 01:18:00;;;;;;;11.15;2.85;;;9.30;99.90;;;;;;4141792;28;20034;-68
2023/12/12 01:20:01;;;;;;;10.50;2.47;;;9.40;99.90;;;;;;4144156;28;20050;-67
2023/12/12 01:22:02;;;;;;;10.77;2.42;;;9.30;99.90;;;;;;4135281;28;20042;-67
2023/12/12 01:24:02;;;;;;;10.13;2.45;;;9.40;99.90;;;;;;4142507;28;20500;-67
2023/12/12 01:26:03;;;;;;;9.82;2.58;;;9.40;99.90;;;;;;4140245;28;20413;-67
2023/12/12 01:28:04;;;;;;;8.70;2.10;;;9.30;99.90;;;;;;4140897;28;20061;-67
2023/12/12 01:30:05;;;;;;;5.53;2.20;;;9.40;99.90;;;;;;4139211;28;20058;-68
2023/12/12 01:32:06;;;;;;;9.07;2.50;;;9.40;99.90;;;;;;4142153;28;20088;-67
2023/12/12 01:34:06;;;;;;;8.63;2.55;;;9.40;99.90;;;;;;4144141;28;20472;-67
2023/12/12 01:36:07;;;;;;;8.45;2.28;;;9.40;99.90;;;;;;4137089;28;21214;-67
2023/12/12 01:38:08;;;;;;;6.80;2.40;;;9.50;99.90;;;;;;4137395;28;20049;-67
2023/12/12 01:40:09;;;;;;;6.65;2.25;;;9.40;99.90;;;;;;4139979;28;20051;-68
2023/12/12 01:42:10;;;;;;;9.55;2.70;;;9.40;99.90;;;;;;4140787;28;20066;-67
2023/12/12 01:44:10;;;;;;;6.70;2.60;;;9.50;99.90;;;;;;4136698;28;20042;-67
2023/12/12 01:46:14;;;;;;;10.10;2.35;;;9.50;99.90;;;;;;4135156;28;20062;-67
2023/12/12 01:48:15;;;;;;;6.63;2.10;;;9.50;99.90;;;;;;4134033;28;20100;-67
2023/12/12 01:50:16;;;;;;;8.90;2.10;;;9.50;99.90;;;;;;4132355;28;20113;-67
2023/12/12 01:52:16;;;;;;;6.45;2.00;;;9.50;99.90;;;;;;4136027;28;20463;-67
2023/12/12 01:54:18;;;;;;;4.75;1.85;;;9.50;99.90;;;;;;4140408;28;20038;-67
2023/12/12 01:56:19;;;;;;;5.22;2.17;;;9.60;99.90;;;;;;4134573;28;20448;-67
2023/12/12 01:58:21;;;;;;;5.80;2.03;;;9.50;99.90;;;;;;4137509;28;20161;-68
2023/12/12 02:00:22;;;;;;;7.18;2.38;;;9.50;99.90;;;;;;4135258;28;20039;-67
2023/12/12 02:02:23;;;;;;;5.50;2.13;;;9.50;99.90;;;;;;4128512;28;20500;-68
2023/12/12 02:04:24;;;;;;;9.68;2.88;;;9.50;99.90;;;;;;4134639;28;20463;-68
2023/12/12 02:06:25;;;;;;;5.95;1.88;;;9.50;99.90;;;;;;4135621;28;20600;-68
2023/12/12 02:08:26;;;;;;;6.97;1.88;;;9.50;99.90;;;;;;4132570;28;20073;-68
2023/12/12 02:10:27;;;;;;;9.00;2.30;;;9.50;99.90;;;;;;4138944;28;20041;-68
2023/12/12 02:12:28;;;;;;;8.38;2.72;;;9.50;99.90;;;;;;4139738;28;20387;-68
2023/12/12 02:14:29;;;;;;;7.65;1.88;;;9.50;99.90;;;;;;4136446;28;20049;-68
2023/12/12 02:16:29;;;;;;;6.10;2.38;;;9.50;99.90;;;;;;4137316;28;20038;-68
2023/12/12 02:18:30;;;;;;;3.55;1.77;;;9.50;99.90;;;;;;4141364;28;20535;-68
2023/12/12 02:20:30;;;;;;;4.95;1.83;;;9.40;99.90;;;;;;4134742;28;20053;-68
2023/12/12 02:22:31;;;;;;;5.00;1.77;;;9.40;99.90;;;;;;4139650;28;20030;-68
2023/12/12 02:24:32;;;;;;;8.65;2.30;;;9.40;99.90;;;;;;4154790;28;20505;-68
2023/12/12 02:26:32;;;;;;;6.20;1.95;;;9.40;99.90;;;;;;4131455;28;20066;-68
2023/12/12 02:28:33;;;;;;;8.80;2.72;;;9.40;99.90;;;;;;4135101;28;20050;-68
2023/12/12 02:30:35;;;;;;;6.97;2.30;;;9.40;99.90;;;;;;4140230;28;20117;-68
2023/12/12 02:32:35;;;;;;;6.80;1.92;;;9.40;99.90;;;;;;4136549;28;20168;-68
2023/12/12 02:34:36;;;;;;;9.30;2.38;;;9.40;99.90;;;;;;4143684;28;20042;-68
2023/12/12 02:36:36;;;;;;;10.10;3.00;;;9.30;99.90;;;;;;4141869;28;20033;-67
2023/12/12 02:38:37;;;;;;;11.40;2.67;;;9.30;99.90;;;;;;4135724;28;20042;-68
2023/12/12 02:40:38;;;;;;;8.32;2.47;;;9.30;99.90;;;;;;4140414;28;20497;-68
2023/12/12 02:42:43;;;;;;;7.53;2.63;;;9.30;99.90;;;;;;4143358;28;20050;-68
2023/12/12 02:44:44;;;;;;;10.23;2.25;;;9.30;99.90;;;;;;4143037;28;20035;-68
2023/12/12 02:46:45;;;;;;;7.95;2.47;;;9.30;99.90;;;;;;4141229;28;20041;-67
2023/12/12 02:48:45;;;;;;;10.48;3.05;;;9.20;99.90;;;;;;4140840;28;20037;-68
2023/12/12 02:50:46;;;;;;;12.10;3.20;;;9.20;99.90;;;;;;4149282;28;20496;-68
2023/12/12 02:52:46;;;;;;;10.30;2.47;;;9.20;99.90;;;;;;4140024;28;20537;-68
2023/12/12 02:54:47;;;;;;;13.85;2.30;;;9.20;99.90;;;;;;4140720;28;20052;-68
2023/12/12 02:56:48;;;;;;;12.63;2.63;;;9.20;99.90;;;;;;4141718;28;20054;-68
2023/12/12 02:58:48;;;;;;;11.05;2.75;;;9.20;99.90;;;;;;4142353;28;20072;-68
2023/12/12 03:00:49;;;;;;;10.95;3.28;;;9.10;99.90;;;;;;4150264;28;20055;-68
2023/12/12 03:02:49;;;;;;;8.82;2.65;;;9.20;99.90;;;;;;4138867;28;20038;-68
2023/12/12 03:04:50;;;;;;;9.45;3.17;;;9.10;99.90;;;;;;4145390;28;20035;-68
2023/12/12 03:06:51;;;;;;;9.13;2.63;;;9.10;99.90;;;;;;4129980;28;20053;-68
2023/12/12 03:08:51;;;;;;;12.38;2.78;;;9.10;99.90;;;;;;4132630;28;20050;-68
2023/12/12 03:10:52;;;;;;;12.10;2.80;;;9.10;99.90;;;;;;4140305;28;20036;-68
2023/12/12 03:12:52;;;;;;;10.55;3.10;;;9.10;99.90;;;;;;4134775;28;20034;-68
2023/12/12 03:14:53;;;;;;;12.45;3.28;;;9.10;99.90;;;;;;4141465;28;20034;-68
2023/12/12 03:16:53;;;;;;;8.23;2.63;;;9.10;99.90;;;;;;4132422;28;20474;-68
2023/12/12 03:18:54;;;;;;;9.95;2.40;;;9.10;99.90;;;;;;4134607;28;20053;-68
2023/12/12 03:20:55;;;;;;;8.75;2.83;;;9.10;99.90;;;;;;4127740;28;20530;-68
2023/12/12 03:22:55;;;;;;;8.93;2.63;;;9.10;99.90;;;;;;4132690;28;20113;-68
2023/12/12 03:24:56;;;;;;;10.70;3.03;;;9.10;99.90;;;;;;4134894;28;20505;-68
2023/12/12 03:26:58;;;;;;;14.40;3.70;;;9.10;99.90;;;;;;4135403;28;20510;-68
2023/12/12 03:28:58;;;;;;;10.20;2.55;;;9.00;99.90;;;;;;4140042;28;20546;-68
2023/12/12 03:30:59;;;;;;;9.68;2.83;;;9.10;99.90;;;;;;4140853;28;20038;-68
2023/12/12 03:38:52;;;;;;;7.10;2.78;;;9.10;99.90;;;;;;4129758;28;20528;-68
2023/12/12 03:40:53;;;;;;;8.00;2.22;;;9.10;99.90;;;;;;4135896;28;20042;-68
2023/12/12 03:42:53;;;;;;;6.50;2.00;;;9.10;99.90;;;;;;4142298;28;20053;-68
2023/12/12 03:44:54;;;;;;;13.40;2.72;;;9.10;99.90;;;;;;4142631;28;20034;-68
2023/12/12 03:46:54;;;;;;;9.90;2.70;;;9.00;99.90;;;;;;4135991;28;20401;-68
2023/12/12 03:48:55;;;;;;;12.10;2.90;;;9.00;99.90;;;;;;4140109;28;20442;-69
2023/12/12 03:50:55;;;;;;;9.95;2.63;;;9.00;99.90;;;;;;4141825;28;20470;-68
2023/12/12 03:52:56;;;;;;;18.95;3.70;;;9.10;99.90;;;;;;4140334;28;20522;-68
2023/12/12 03:54:57;;;;;;;14.07;3.40;;;9.10;99.90;;;;;;4139817;28;20598;-68
2023/12/12 03:56:57;;;;;;;10.55;2.63;;;9.10;99.90;;;;;;4139909;28;20056;-68
2023/12/12 03:58:59;;;;;;;8.63;2.90;;;9.00;99.90;;;;;;4141242;28;20057;-68
2023/12/12 04:01:00;;;;;;;14.77;3.13;;;9.00;99.90;;;;;;4140924;28;20038;-68
2023/12/12 04:03:00;;;;;;;7.80;2.45;;;9.10;99.90;;;;;;4137324;28;20552;-68
2023/12/12 04:05:01;;;;;;;12.25;2.70;;;9.00;99.90;;;;;;4152269;28;20044;-68
2023/12/12 04:07:03;;;;;;;9.90;2.50;;;9.00;99.90;;;;;;4141216;28;21015;-68
2023/12/12 04:09:03;;;;;;;11.35;2.70;;;9.10;99.90;;;;;;4139285;28;20449;-68
2023/12/12 04:11:04;;;;;;;10.13;2.60;;;9.00;99.90;;;;;;4140577;28;20038;-68
2023/12/12 04:13:05;;;;;;;9.80;2.85;;;9.00;99.90;;;;;;4140831;28;20034;-68
2023/12/12 04:15:06;;;;;;;5.88;2.40;;;9.10;99.90;;;;;;4141798;28;20493;-69
2023/12/12 04:17:07;;;;;;;11.98;2.72;;;9.00;99.90;;;;;;4140343;28;20455;-68
2023/12/12 04:19:08;;;;;;;9.70;2.72;;;9.10;99.90;;;;;;4139354;28;20125;-67
2023/12/12 04:21:08;;;;;;;12.45;2.92;;;9.00;99.90;;;;;;4140524;28;20441;-68
2023/12/12 04:23:09;;;;;;;13.45;2.88;;;9.10;99.90;;;;;;4140459;28;20046;-67
2023/12/12 04:25:13;;;;;;;15.80;3.53;;;9.00;99.90;;;;;;4136715;28;20105;-68
2023/12/12 04:27:13;;;;;;;12.70;3.20;;;9.00;99.90;;;;;;4132722;28;20035;-67
2023/12/12 04:29:14;;;;;;;9.35;2.83;;;9.00;99.90;;;;;;4135320;28;20073;-70
2023/12/12 04:31:16;;;;;;;15.32;3.20;;;9.00;99.90;;;;;;4136171;28;20046;-69
2023/12/12 04:33:17;;;;;;;12.80;3.38;;;9.00;99.90;;;;;;4143380;28;20119;-69
2023/12/12 04:35:19;;;;;;;10.15;3.28;;;9.00;99.90;;;;;;4141275;28;20034;-69
2023/12/12 04:37:20;;;;;;;12.95;3.40;;;9.00;99.90;;;;;;4143623;28;21064;-69
2023/12/12 04:39:20;;;;;;;9.38;3.17;;;9.00;99.90;;;;;;4138852;28;20049;-75
2023/12/12 04:41:21;;;;;;;11.57;3.47;;;9.00;99.90;;;;;;4140035;28;20455;-75
2023/12/12 04:43:22;;;;;;;11.68;3.00;;;9.00;99.90;;;;;;4141934;28;20406;-76
2023/12/12 04:45:22;;;;;;;11.98;3.35;;;9.00;99.90;;;;;;4138631;28;20494;-76
2023/12/12 04:47:23;;;;;;;11.70;3.22;;;9.00;99.90;;;;;;4140942;28;20117;-76
2023/12/12 04:49:24;;;;;;;14.52;3.67;;;9.00;99.90;;;;;;4142721;28;20044;-75
2023/12/12 04:51:24;;;;;;;8.52;2.70;;;9.00;99.90;;;;;;4139658;28;20477;-75
2023/12/12 04:53:25;;;;;;;7.32;3.05;;;9.00;99.90;;;;;;4140267;28;20045;-76
2023/12/12 04:55:25;;;;;;;12.82;3.13;;;9.00;99.90;;;;;;4139649;28;20045;-76
2023/12/12 04:57:26;;;;;;;10.98;3.38;;;9.00;99.90;;;;;;4134181;28;20117;-76
2023/12/12 04:59:27;;;;;;;20.42;3.42;;;9.00;99.90;;;;;;4140982;28;20504;-75
2023/12/12 05:01:28;;;;;;;11.50;3.65;;;9.00;99.90;;;;;;4142665;28;20034;-75
2023/12/12 05:03:28;;;;;;;10.73;2.78;;;9.00;99.90;;;;;;4140931;28;20088;-75
2023/12/12 05:05:29;;;;;;;9.43;3.00;;;9.00;99.90;;;;;;4140837;28;20605;-75
2023/12/12 05:07:29;;;;;;;11.13;3.17;;;9.10;99.90;;;;;;4139939;28;20039;-75
2023/12/12 05:09:30;;;;;;;12.18;3.55;;;9.10;99.90;;;;;;4138440;28;20670;-76
2023/12/12 05:11:30;;;;;;;13.63;3.78;;;9.00;99.90;;;;;;4131986;28;20034;-75
2023/12/12 05:13:31;;;;;;;9.88;3.53;;;9.10;99.90;;;;;;4133250;28;20048;-75
2023/12/12 05:15:31;;;;;;;11.02;3.17;;;9.00;99.90;;;;;;4128518;28;20031;-75
2023/12/12 05:17:32;;;;;;;7.70;3.08;;;9.00;99.90;;;;;;4132423;28;20399;-75
2023/12/12 05:19:32;;;;;;;15.10;3.55;;;9.00;99.90;;;;;;4139361;28;20509;-75
2023/12/12 05:21:33;;;;;;;10.23;3.42;;;9.10;99.90;;;;;;4134569;28;20084;-73
2023/12/12 05:23:34;;;;;;;9.98;3.25;;;9.10;99.90;;;;;;4137878;28;20044;-75
2023/12/12 05:25:34;;;;;;;10.57;3.22;;;9.10;99.90;;;;;;4137325;28;20478;-75
2023/12/12 05:27:35;;;;;;;10.60;3.40;;;9.10;99.90;;;;;;4136259;28;20398;-75
2023/12/12 05:29:35;;;;;;;11.00;3.00;;;9.00;99.90;;;;;;4141508;28;20065;-75
2023/12/12 05:31:36;;;;;;;7.95;2.50;;;9.00;99.90;;;;;;4138207;28;20038;-75
2023/12/12 05:33:36;;;;;;;12.50;3.38;;;9.00;99.90;;;;;;4141949;28;20390;-75
2023/12/12 05:35:37;;;;;;;9.05;2.63;;;9.00;99.90;;;;;;4138990;28;20449;-75
2023/12/12 05:37:37;;;;;;;12.18;3.30;;;9.10;99.90;;;;;;4143000;28;20103;-75
2023/12/12 05:39:38;;;;;;;12.75;2.88;;;9.00;99.90;;;;;;4140399;28;20054;-75
2023/12/12 05:41:39;;;;;;;15.63;3.75;;;9.00;99.90;;;;;;4130295;28;20043;-75
2023/12/12 05:43:39;;;;;;;15.55;3.40;;;9.00;99.90;;;;;;4137834;28;20066;-74
2023/12/12 05:45:40;;;;;;;13.45;3.33;;;9.00;99.90;;;;;;4141904;28;20030;-75
2023/12/12 05:47:40;;;;;;;10.77;3.35;;;9.00;99.90;;;;;;4137764;28;20076;-76
2023/12/12 05:49:41;;;;;;;10.68;3.28;;;9.00;99.90;;;;;;4135987;28;20446;-63
2023/12/12 05:51:42;;;;;;;11.88;3.30;;;8.90;99.90;;;;;;4130922;28;20042;-62
2023/12/12 05:53:42;;;;;;;14.80;3.35;;;8.90;99.90;;;;;;4134623;28;20049;-62
2023/12/12 05:55:43;;;;;;;13.27;3.45;;;9.00;99.90;;;;;;4141687;28;20145;-62
2023/12/12 05:57:43;;;;;;;16.65;3.72;;;8.90;99.90;;;;;;4141610;28;20089;-63
2023/12/12 05:59:44;;;;;;;13.23;3.92;;;8.90;99.90;;;;;;4140987;28;20052;-62
2023/12/12 06:01:45;;;;;;;12.85;3.67;;;8.90;99.90;;;;;;4139954;28;20475;-62
2023/12/12 06:03:45;;;;;;;11.93;3.65;;;8.90;99.90;;;;;;4138256;28;20495;-62
2023/12/12 06:05:46;;;;;;;14.10;3.63;;;8.80;99.90;;;;;;4140578;28;20050;-62
2023/12/12 06:07:46;;;;;;;13.07;3.75;;;8.80;99.90;;;;;;4141696;28;20038;-62
2023/12/12 06:09:47;;;;;;;13.57;3.17;;;8.80;99.90;;;;;;4141002;28;20042;-62
2023/12/12 06:11:48;;;;;;;15.95;3.33;;;8.80;99.90;;;;;;4141733;28;20030;-62
2023/12/12 06:13:49;;;;;;;13.00;3.65;;;8.80;99.90;;;;;;4140911;28;20042;-62
2023/12/12 06:15:49;;;;;;;13.30;3.63;;;8.80;99.90;;;;;;4138996;28;20126;-62
2023/12/12 06:17:50;;;;;;;13.82;3.67;;;8.80;99.90;;;;;;4136115;28;20439;-62
2023/12/12 06:19:51;;;;;;;17.10;4.47;;;8.80;99.90;;;;;;4137931;28;20050;-62
2023/12/12 06:21:53;;;;;;;13.63;4.50;;;8.80;99.90;;;;;;4128378;28;20053;-62
2023/12/12 06:23:54;;;;;;;15.60;4.40;;;8.80;99.90;;;;;;4135840;28;20050;-62
2023/12/12 06:25:55;;;;;;;16.00;5.20;;;8.80;99.90;;;;;;4134676;28;20041;-62
2023/12/12 06:27:56;;;;;;;16.52;4.53;;;8.80;99.90;;;;;;4136523;28;20060;-62
2023/12/12 06:29:56;;;;;;;11.40;3.75;;;8.80;99.90;;;;;;4132295;28;20627;-62
2023/12/12 06:31:57;;;;;;;13.38;3.58;;;8.80;99.90;;;;;;4133709;28;20026;-62
2023/12/12 06:33:57;;;;;;;14.45;3.97;;;8.80;99.90;;;;;;4137593;28;20034;-62
2023/12/12 06:35:58;;;;;;;17.33;3.63;;;8.80;99.90;;;;;;4137164;28;20046;-62
2023/12/12 06:40:18;;;;;;;15.55;3.47;;;8.90;99.90;;;;;;4173577;27;20391;-63
2023/12/12 06:42:18;;;;;;;9.77;3.40;;;8.90;99.90;;;;;;4173144;28;20515;-63
2023/12/12 06:44:19;;;;;;;9.27;3.22;;;8.90;99.90;;;;;;4172856;28;20378;-63
2023/12/12 06:46:19;;;;;;;10.35;3.22;;;8.90;99.90;;;;;;4165852;28;20113;-63
2023/12/12 06:48:20;;;;;;;15.93;3.85;;;8.90;99.90;;;;;;4172465;28;20037;-63
2023/12/12 06:50:20;;;;;;;11.98;3.30;;;8.90;99.90;;;;;;4173272;28;20034;-63
2023/12/12 06:52:21;;;;;;;11.80;3.95;;;8.90;99.90;;;;;;4173216;28;20424;-63
2023/12/12 06:54:22;;;;;;;10.75;3.03;;;9.00;99.90;;;;;;4170223;28;20492;-64
2023/12/12 06:56:23;;;;;;;16.67;3.60;;;9.00;99.90;;;;;;4168395;28;20033;-64
2023/12/12 06:58:24;;;;;;;14.13;3.47;;;9.00;99.90;;;;;;4169599;28;20029;-64
2023/12/12 07:00:25;;;;;;;22.83;4.20;;;9.00;99.90;;;;;;4169475;28;20541;-77
2023/12/12 07:02:26;;;;;;;16.13;4.50;;;9.00;99.90;;;;;;4171819;28;20037;-77
2023/12/12 07:04:26;;;;;;;10.98;3.30;;;8.90;99.90;;;;;;4171542;28;20588;-77
2023/12/12 07:06:27;;;;;;;14.80;3.28;;;9.00;99.90;;;;;;4168619;28;20061;-77
2023/12/12 07:08:28;;;;;;;13.00;3.65;;;9.00;99.90;;;;;;4170956;28;20044;-77
2023/12/12 07:10:28;;;;;;;13.60;3.80;;;9.00;99.90;;;;;;4170543;28;20067;-77
2023/12/12 07:12:29;;;;;;;19.55;4.05;;;9.00;99.90;;;;;;4174174;28;20048;-73
2023/12/12 07:14:29;;;;;;;12.63;3.47;;;9.00;99.90;;;;;;4174767;28;20037;-77
2023/12/12 07:16:30;;;;;;;14.05;3.70;;;9.00;99.90;;;;;;4174329;28;20056;-76
2023/12/12 07:18:30;;;;;;;14.85;3.70;;;9.00;99.90;;;;;;4178025;28;20037;-77
2023/12/12 07:20:31;;;;;;;14.77;4.00;;;9.00;99.90;;;;;;4173856;28;20128;-77
2023/12/12 07:22:32;;;;;;;16.45;3.83;;;9.00;99.90;;;;;;4171940;28;20044;-77
2023/12/12 07:24:33;;;;;;;20.08;4.72;;;9.00;99.90;;;;;;4174661;28;20461;-75
2023/12/12 07:26:33;;;;;;;20.15;4.07;;;9.00;99.90;;;;;;4174188;28;20035;-75
2023/12/12 07:28:34;;;;;;;13.50;3.72;;;9.00;99.90;;;;;;4174100;28;20033;-76
2023/12/12 07:30:35;;;;;;;12.05;3.55;;;9.00;99.90;;;;;;4171335;28;20025;-75
2023/12/12 07:32:35;;;;;;;16.92;4.28;;;9.00;99.90;;;;;;4175345;28;20041;-75
2023/12/12 07:34:36;;;;;;;8.32;3.10;;;9.00;99.90;;;;;;4172940;28;20044;-75
2023/12/12 07:36:37;;;;;;;19.17;4.22;;;9.00;99.90;;;;;;4170778;28;20045;-75
2023/12/12 07:38:41;;;;;;;22.95;4.63;;;9.00;99.90;;;;;;4161370;28;20080;-76
2023/12/12 07:40:43;;;;;;;17.27;4.20;;;9.00;99.90;;;;;;4169418;28;20099;-76
2023/12/12 07:42:47;;;;;;;18.95;3.75;;;9.00;99.90;;;;;;4172839;28;20455;-69
2023/12/12 07:44:47;;;;;;;17.00;4.40;;;8.90;99.90;;;;;;4168826;28;20037;-69
2023/12/12 07:46:48;;;;;;;15.77;3.50;;;8.90;99.90;;;;;;4173123;28;20048;-69
2023/12/12 07:48:50;;;;;;;11.98;3.55;;;9.00;99.90;;;;;;4169708;28;20121;-69
2023/12/12 07:50:50;;;;;;;14.32;2.97;;;8.90;99.90;;;;;;4160846;28;20036;-69
2023/12/12 07:52:51;;;;;;;10.43;2.92;;;9.00;99.90;;;;;;4164819;28;20445;-69
2023/12/12 07:54:52;;;;;;;9.57;2.40;;;9.00;99.90;;;;;;4159129;28;20505;-69
2023/12/12 07:56:54;;;;;;;8.57;2.35;;;9.00;99.90;;;;;;4157856;28;20037;-69
2023/12/12 07:58:55;;;;;;;12.15;2.97;;;9.10;99.90;;;;;;4163642;28;20041;-69
2023/12/12 08:00:55;;;;;;;8.95;2.80;;;9.10;99.90;;;;;;4163345;28;20041;-69
2023/12/12 08:02:56;;;;;;;12.65;3.20;;;9.10;99.90;;;;;;4164383;28;20030;-68
2023/12/12 08:04:57;;;;;;;11.65;3.13;;;9.10;99.90;;;;;;4163325;28;20053;-67
2023/12/12 08:06:57;;;;;;;11.52;2.80;;;9.20;99.90;;;;;;4163193;28;20034;-68
2023/12/12 08:08:59;;;;;;;7.15;2.90;;;9.20;99.90;;;;;;4163242;28;20116;-64
2023/12/12 08:11:00;;;;;;;10.90;2.37;;;9.20;99.90;;;;;;4161664;28;20039;-66
2023/12/12 08:13:01;;;;;;;9.32;2.75;;;9.20;99.90;;;;;;4144131;28;20025;-64
2023/12/12 08:15:03;;;;;;;10.57;3.40;;;9.20;99.90;;;;;;4163372;28;20029;-64
2023/12/12 08:17:04;;;;;;;8.27;2.85;;;9.20;99.90;;;;;;4163321;28;20124;-64
2023/12/12 08:19:04;;;;;;;11.50;3.42;;;9.20;99.90;;;;;;4163958;28;20041;-64
2023/12/12 08:21:06;;;;;;;11.52;3.28;;;9.20;99.90;;;;;;4161260;28;20045;-66
2023/12/12 08:23:06;;;;;;;14.55;3.53;;;9.20;99.90;;;;;;4163522;28;20453;-64
2023/12/12 08:25:07;;;;;;;10.60;3.00;;;9.20;99.90;;;;;;4162697;28;20032;-64
2023/12/12 08:27:08;;;;;;;11.93;3.22;;;9.20;99.90;;;;;;4149549;28;20033;-64
2023/12/12 08:29:10;;;;;;;11.98;3.28;;;9.30;99.90;;;;;;4163198;28;20076;-71
2023/12/12 08:31:10;;;;;;;12.17;3.10;;;9.30;99.90;;;;;;4177972;28;20071;-72
2023/12/12 08:33:11;;;;;;;13.07;3.92;;;9.30;99.90;;;;;;4162779;28;20078;-71
2023/12/12 08:35:12;;;;;;;15.88;3.65;;;9.40;99.90;;;;;;4162238;28;20033;-72
2023/12/12 08:37:13;;;;;;;14.10;3.60;;;9.40;99.90;;;;;;4161859;28;20044;-71
2023/12/12 08:39:14;;;;;;;16.98;4.53;;;9.40;99.90;;;;;;4162372;28;20049;-72
2023/12/12 08:41:14;;;;;;;16.05;4.15;;;9.40;99.90;;;;;;4161351;28;20452;-71
2023/12/12 08:43:16;;;;;;;13.30;4.15;;;9.40;99.90;;;;;;4162838;28;20038;-71
2023/12/12 08:45:16;;;;;;;10.50;3.33;;;9.50;99.90;;;;;;4156025;28;20109;-72
2023/12/12 08:47:17;;;;;;;17.55;4.90;;;9.50;99.90;;;;;;4152528;28;20527;-72
2023/12/12 08:49:18;;;;;;;10.60;4.03;;;9.50;99.90;;;;;;4161887;28;20424;-72
2023/12/12 08:51:19;;;;;;;13.50;3.72;;;9.50;99.90;;;;;;4162834;28;20029;-72
2023/12/12 08:53:26;;;;;;;12.57;3.63;;;9.60;99.90;;;;;;4158788;28;20559;-71
2023/12/12 08:55:27;;;;;;;12.40;3.47;;;9.50;99.90;;;;;;4149522;28;20045;-72
2023/12/12 08:57:27;;;;;;;14.48;4.10;;;9.60;99.90;;;;;;4162793;28;20037;-72
2023/12/12 08:59:29;;;;;;;16.88;3.90;;;9.50;99.90;;;;;;4162599;28;20049;-72
2023/12/12 09:01:29;;;;;;;10.82;3.63;;;9.50;99.90;;;;;;4162115;28;20463;-72
2023/12/12 09:03:30;;;;;;;17.55;4.18;;;9.60;99.90;;;;;;4161778;28;20040;-71
2023/12/12 09:05:30;;;;;;;15.85;3.72;;;9.60;99.90;;;;;;4161876;28;20061;-72
2023/12/12 09:07:31;;;;;;;15.45;3.85;;;9.60;99.90;;;;;;4163009;28;20046;-72
2023/12/12 09:09:31;;;;;;;15.68;4.07;;;9.60;99.90;;;;;;4163140;28;20037;-71
2023/12/12 09:11:35;;;;;;;16.75;4.03;;;9.60;99.90;;;;;;4163038;28;20040;-72
2023/12/12 09:13:36;;;;;;;13.15;3.55;;;9.70;99.90;;;;;;4162499;28;20057;-72
2023/12/12 09:15:36;;;;;;;20.52;4.30;;;9.60;99.90;;;;;;4161186;28;20048;-72
2023/12/12 09:17:37;;;;;;;19.63;4.40;;;9.60;99.90;;;;;;4162110;28;20450;-71
2023/12/12 09:19:37;;;;;;;20.70;4.07;;;9.60;99.90;;;;;;4162369;28;20041;-72
2023/12/12 09:21:38;;;;;;;13.85;3.25;;;9.60;99.90;;;;;;4161773;28;20466;-71
2023/12/12 09:23:40;;;;;;;12.38;4.10;;;9.70;99.90;;;;;;4158835;28;20156;-71
2023/12/12 09:25:40;;;;;;;17.60;3.83;;;9.60;99.90;;;;;;4183741;28;20033;-72
2023/12/12 09:27:41;;;;;;;18.35;4.43;;;9.70;99.90;;;;;;4150932;28;20165;-71
2023/12/12 09:29:42;;;;;;;12.30;3.53;;;9.70;99.90;;;;;;4145834;28;20171;-72
2023/12/12 09:31:42;;;;;;;11.23;3.40;;;9.70;99.90;;;;;;4145009;28;20074;-73
2023/12/12 09:33:43;;;;;;;10.75;3.33;;;9.80;99.90;;;;;;4147292;28;20041;-71
2023/12/12 09:35:43;;;;;;;16.13;4.15;;;9.80;99.90;;;;;;4156548;28;20045;-72
2023/12/12 09:37:44;;;;;;;17.30;3.33;;;9.80;99.90;;;;;;4156104;28;20091;-72
2023/12/12 09:39:47;;;;;;;11.02;3.40;;;9.80;99.90;;;;;;4148667;28;20125;-71
2023/12/12 09:41:52;;;;;;;14.35;3.35;;;9.80;99.90;;;;;;4141336;28;20041;-71
2023/12/12 09:43:52;;;;;;;18.95;3.60;;;9.90;99.90;;;;;;4149285;28;20463;-71
2023/12/12 09:45:57;;;;;;;13.25;3.10;;;9.90;99.90;;;;;;4153713;28;20041;-71
2023/12/12 09:47:58;;;;;;;14.50;3.55;;;10.00;99.90;;;;;;4154144;28;20034;-71
2023/12/12 09:49:59;;;;;;;13.35;3.13;;;10.00;99.90;;;;;;4159418;28;20052;-72
2023/12/12 09:52:01;;;;;;;15.35;4.13;;;10.00;99.90;;;;;;4152966;28;20034;-71
2023/12/12 09:54:06;;;;;;;16.33;4.22;;;10.10;99.90;;;;;;4151195;28;20033;-71
2023/12/12 09:56:08;;;;;;;16.20;3.90;;;10.10;99.90;;;;;;4185637;28;20037;-70
2023/12/12 09:58:08;;;;;;;18.25;4.22;;;10.10;99.90;;;;;;4152803;28;20478;-71
2023/12/12 10:00:09;;;;;;;13.07;3.78;;;10.10;99.90;;;;;;4148827;28;20060;-72
2023/12/12 10:02:17;;;;;;;16.65;3.47;;;10.20;99.90;;;;;;4187443;28;20116;-71
2023/12/12 10:04:18;;;;;;;17.85;4.45;;;10.20;99.90;;;;;;4189468;28;20048;-71
2023/12/12 10:06:20;;;;;;;12.35;3.75;;;10.20;99.90;;;;;;4188594;28;20115;-70
2023/12/12 10:08:22;;;;;;;15.88;3.80;;;10.20;99.90;;;;;;4158697;28;20076;-70
2023/12/12 10:10:23;;;;;;;15.25;4.38;;;10.20;99.90;;;;;;4154228;28;20034;-71
2023/12/12 10:12:23;;;;;;;15.90;3.40;;;10.30;99.90;;;;;;4156384;28;20032;-71
2023/12/12 10:14:47;;;;;;;13.75;3.67;;;10.30;99.90;;;;;;4158599;28;20428;-72
2023/12/12 10:17:00;;;;;;;17.02;3.85;;;10.30;99.90;;;;;;4153721;28;20094;-72
2023/12/12 10:19:01;;;;;;;12.73;2.90;;;10.40;99.90;;;;;;4153028;28;20038;-72
2023/12/12 10:21:17;;;;;;;16.80;3.75;;;10.40;99.90;;;;;;4156759;28;20075;-71
2023/12/12 10:23:17;;;;;;;12.82;3.83;;;10.50;99.90;;;;;;4150809;28;20041;-72
2023/12/12 10:25:18;;;;;;;15.35;4.22;;;10.50;99.90;;;;;;4156216;28;20112;-72
2023/12/12 10:27:22;;;;;;;13.80;2.80;;;10.60;99.90;;;;;;4156759;28;20048;-71
2023/12/12 10:29:22;;;;;;;15.77;3.75;;;10.60;99.90;;;;;;4153678;28;20056;-71
2023/12/12 10:31:23;;;;;;;15.98;3.65;;;10.70;99.90;;;;;;4154886;28;20030;-72
2023/12/12 10:33:27;;;;;;;9.90;2.90;;;10.80;99.90;;;;;;4153096;28;20053;-70
2023/12/12 10:35:30;;;;;;;10.80;2.90;;;10.90;99.90;;;;;;4151924;28;20124;-72
2023/12/12 10:37:31;;;;;;;15.77;3.25;;;10.90;99.90;;;;;;4149589;28;20033;-72
2023/12/12 10:39:31;;;;;;;10.85;3.17;;;10.90;99.90;;;;;;4155118;28;20398;-71
2023/12/12 10:41:32;;;;;;;15.00;3.40;;;11.00;99.90;;;;;;4154040;28;20112;-72